createdAt,value
2023-03-27T00:00:05.804Z,72.61
2023-03-27T00:01:05.788Z,72.69
2023-03-27T00:02:05.813Z,72.73
2023-03-27T00:03:05.886Z,72.63
2023-03-27T00:04:05.854Z,72.60
2023-03-27T00:05:05.763Z,72.65
2023-03-27T00:06:05.755Z,72.74
2023-03-27T00:07:05.734Z,72.74
2023-03-27T00:08:05.728Z,72.78
2023-03-27T00:09:05.697Z,72.84
2023-03-27T00:10:05.686Z,72.80
2023-03-27T00:11:05.660Z,72.85
2023-03-27T00:12:05.707Z,72.84
2023-03-27T00:13:05.686Z,72.87
2023-03-27T00:14:05.654Z,72.87
2023-03-27T00:15:05.643Z,72.87
2023-03-27T00:16:05.614Z,72.79
2023-03-27T00:17:05.636Z,72.89
2023-03-27T00:18:05.597Z,72.89
2023-03-27T00:19:05.561Z,72.76
2023-03-27T00:20:05.538Z,72.67
2023-03-27T00:21:05.545Z,72.75
2023-03-27T00:22:05.551Z,72.82
2023-03-27T00:23:05.536Z,72.82
2023-03-27T00:24:05.532Z,72.75
2023-03-27T00:25:05.495Z,72.78
2023-03-27T00:26:05.491Z,72.71
2023-03-27T00:27:05.450Z,72.70
2023-03-27T00:28:05.440Z,72.79
2023-03-27T00:29:05.429Z,72.72
2023-03-27T00:30:05.437Z,72.72
2023-03-27T00:31:05.448Z,72.83
2023-03-27T00:32:05.393Z,72.83
2023-03-27T00:33:05.407Z,72.96
2023-03-27T00:34:05.369Z,72.88
2023-03-27T00:35:05.359Z,72.89
2023-03-27T00:36:05.389Z,72.82
2023-03-27T00:37:05.340Z,72.75
2023-03-27T00:38:05.326Z,72.73
2023-03-27T00:39:05.308Z,72.82
2023-03-27T00:40:05.308Z,72.82
2023-03-27T00:41:05.365Z,72.78
2023-03-27T00:42:05.286Z,72.74
2023-03-27T00:43:05.264Z,72.72
2023-03-27T00:44:05.256Z,72.92
2023-03-27T00:45:05.250Z,72.89
2023-03-27T00:46:05.243Z,72.78
2023-03-27T00:47:05.209Z,72.74
2023-03-27T00:48:05.291Z,72.78
2023-03-27T00:49:05.198Z,72.76
2023-03-27T00:50:05.208Z,72.65
2023-03-27T00:51:05.150Z,72.65
2023-03-27T00:52:05.184Z,72.74
2023-03-27T00:53:05.124Z,72.75
2023-03-27T00:54:05.109Z,72.71
2023-03-27T00:55:05.186Z,72.66
2023-03-27T00:56:05.079Z,72.74
2023-03-27T00:57:05.103Z,72.67
2023-03-27T00:58:05.127Z,72.54
2023-03-27T00:59:05.038Z,72.65
2023-03-27T01:00:05.208Z,72.71
2023-03-27T01:01:05.072Z,72.70
2023-03-27T01:02:05.014Z,72.69
2023-03-27T01:03:05.162Z,72.66
2023-03-27T01:04:05.008Z,72.74
2023-03-27T01:05:04.963Z,72.73
2023-03-27T01:06:04.964Z,72.75
2023-03-27T01:07:04.925Z,72.79
2023-03-27T01:08:04.948Z,72.93
2023-03-27T01:09:04.918Z,73.09
2023-03-27T01:10:04.935Z,73.09
2023-03-27T01:11:04.886Z,73.22
2023-03-27T01:12:04.864Z,73.32
2023-03-27T01:13:04.863Z,73.52
2023-03-27T01:14:04.844Z,73.52
2023-03-27T01:15:04.852Z,73.64
2023-03-27T01:16:04.833Z,73.68
2023-03-27T01:17:04.806Z,73.83
2023-03-27T01:18:04.884Z,74.05
2023-03-27T01:19:04.784Z,74.06
2023-03-27T01:20:04.787Z,74.11
2023-03-27T01:21:04.777Z,74.23
2023-03-27T01:22:04.738Z,74.46
2023-03-27T01:23:04.715Z,74.61
2023-03-27T01:24:04.706Z,74.74
2023-03-27T01:25:04.687Z,74.76
2023-03-27T01:26:04.695Z,74.83
2023-03-27T01:27:04.663Z,75.03
2023-03-27T01:28:04.691Z,75.08
2023-03-27T01:29:04.663Z,75.12
2023-03-27T01:30:04.641Z,75.35
2023-03-27T01:31:04.681Z,75.47
2023-03-27T01:32:04.622Z,75.60
2023-03-27T01:33:04.737Z,75.69
2023-03-27T01:34:04.569Z,75.92
2023-03-27T01:35:04.639Z,76.28
2023-03-27T01:36:04.703Z,76.49
2023-03-27T01:37:04.667Z,76.60
2023-03-27T01:38:04.533Z,76.68
2023-03-27T01:39:04.549Z,76.98
2023-03-27T01:40:04.511Z,77.33
2023-03-27T01:41:04.488Z,77.66
2023-03-27T01:42:04.503Z,78.11
2023-03-27T01:43:04.472Z,78.38
2023-03-27T01:44:04.460Z,78.68
2023-03-27T01:45:04.462Z,78.94
2023-03-27T01:46:04.448Z,79.18
2023-03-27T01:47:04.485Z,79.57
2023-03-27T01:48:04.455Z,79.80
2023-03-27T01:49:04.391Z,79.84
2023-03-27T01:50:04.373Z,79.94
2023-03-27T01:51:04.358Z,80.15
2023-03-27T01:52:04.336Z,80.34
2023-03-27T01:53:04.345Z,80.68
2023-03-27T01:54:04.302Z,80.93
2023-03-27T01:55:04.301Z,81.13
2023-03-27T01:56:04.277Z,81.28
2023-03-27T01:57:04.387Z,81.38
2023-03-27T01:58:04.255Z,81.51
2023-03-27T01:59:04.346Z,81.47
2023-03-27T02:00:18.265Z,81.50
2023-03-27T02:01:04.397Z,81.66
2023-03-27T02:02:04.225Z,81.78
2023-03-27T02:03:04.249Z,81.82
2023-03-27T02:04:04.180Z,81.96
2023-03-27T02:05:04.206Z,82.05
2023-03-27T02:06:04.154Z,82.09
2023-03-27T02:07:04.168Z,82.18
2023-03-27T02:08:04.138Z,82.27
2023-03-27T02:09:04.125Z,82.31
2023-03-27T02:10:04.128Z,82.38
2023-03-27T02:11:04.097Z,82.41
2023-03-27T02:12:04.116Z,82.43
2023-03-27T02:13:04.084Z,82.49
2023-03-27T02:14:04.064Z,82.52
2023-03-27T02:15:23.706Z,82.47
2023-03-27T02:16:04.070Z,82.54
2023-03-27T02:17:04.088Z,82.57
2023-03-27T02:18:04.003Z,82.56
2023-03-27T02:19:04.008Z,82.50
2023-03-27T02:20:03.982Z,82.41
2023-03-27T02:21:03.976Z,82.38
2023-03-27T02:22:03.963Z,82.40
2023-03-27T02:23:03.971Z,82.38
2023-03-27T02:24:03.951Z,82.47
2023-03-27T02:25:03.966Z,82.55
2023-03-27T02:26:03.915Z,82.54
2023-03-27T02:27:03.925Z,82.44
2023-03-27T02:28:03.908Z,82.38
2023-03-27T02:29:03.914Z,82.39
2023-03-27T02:30:03.876Z,82.45
2023-03-27T02:31:06.624Z,82.54
2023-03-27T02:32:03.991Z,82.62
2023-03-27T02:33:03.874Z,82.67
2023-03-27T02:34:03.823Z,82.67
2023-03-27T02:35:03.824Z,82.62
2023-03-27T02:36:03.842Z,82.63
2023-03-27T02:37:03.789Z,82.69
2023-03-27T02:38:03.756Z,82.72
2023-03-27T02:39:03.753Z,82.71
2023-03-27T02:40:03.731Z,82.67
2023-03-27T02:41:03.733Z,82.56
2023-03-27T02:42:03.705Z,82.57
2023-03-27T02:43:03.696Z,82.46
2023-03-27T02:44:03.707Z,82.41
2023-03-27T02:45:03.685Z,82.28
2023-03-27T02:46:03.716Z,82.24
2023-03-27T02:47:03.708Z,82.32
2023-03-27T02:48:03.666Z,82.29
2023-03-27T02:49:03.642Z,82.26
2023-03-27T02:50:03.673Z,82.30
2023-03-27T02:51:03.607Z,82.46
2023-03-27T02:52:03.603Z,82.46
2023-03-27T02:53:03.569Z,82.46
2023-03-27T02:54:03.587Z,82.43
2023-03-27T02:55:03.567Z,82.42
2023-03-27T02:56:03.537Z,82.44
2023-03-27T02:57:03.574Z,82.40
2023-03-27T02:58:03.533Z,82.41
2023-03-27T02:59:03.518Z,82.49
2023-03-27T03:00:03.507Z,82.56
2023-03-27T03:01:03.512Z,82.56
2023-03-27T03:02:03.501Z,82.56
2023-03-27T03:03:03.519Z,82.50
2023-03-27T03:04:03.448Z,82.49
2023-03-27T03:05:03.437Z,82.61
2023-03-27T03:06:03.427Z,82.63
2023-03-27T03:07:03.417Z,82.64
2023-03-27T03:08:03.414Z,82.57
2023-03-27T03:09:03.382Z,82.52
2023-03-27T03:10:03.364Z,82.54
2023-03-27T03:11:03.352Z,82.61
2023-03-27T03:12:03.331Z,82.68
2023-03-27T03:13:03.326Z,82.67
2023-03-27T03:14:03.295Z,82.74
2023-03-27T03:15:03.354Z,82.82
2023-03-27T03:16:03.291Z,82.83
2023-03-27T03:17:03.278Z,82.93
2023-03-27T03:18:03.280Z,82.98
2023-03-27T03:19:03.249Z,83.10
2023-03-27T03:20:03.233Z,83.18
2023-03-27T03:21:03.231Z,83.26
2023-03-27T03:22:03.927Z,83.33
2023-03-27T03:23:03.198Z,83.47
2023-03-27T03:24:03.182Z,83.54
2023-03-27T03:25:03.166Z,83.61
2023-03-27T03:26:03.189Z,83.67
2023-03-27T03:27:03.160Z,83.68
2023-03-27T03:28:03.117Z,83.72
2023-03-27T03:29:03.120Z,83.85
2023-03-27T03:30:03.111Z,83.89
2023-03-27T03:31:03.088Z,83.95
2023-03-27T03:32:03.088Z,84.03
2023-03-27T03:33:03.108Z,84.16
2023-03-27T03:34:03.035Z,84.21
2023-03-27T03:35:03.040Z,84.23
2023-03-27T03:36:03.109Z,84.28
2023-03-27T03:37:03.025Z,84.36
2023-03-27T03:38:02.987Z,84.44
2023-03-27T03:39:02.985Z,84.51
2023-03-27T03:40:02.974Z,84.57
2023-03-27T03:41:02.999Z,84.65
2023-03-27T03:42:02.959Z,84.74
2023-03-27T03:43:02.932Z,84.83
2023-03-27T03:44:02.914Z,84.87
2023-03-27T03:45:02.938Z,84.86
2023-03-27T03:46:02.906Z,84.86
2023-03-27T03:47:02.934Z,84.86
2023-03-27T03:48:02.880Z,84.88
2023-03-27T03:49:02.849Z,84.94
2023-03-27T03:50:02.877Z,85.03
2023-03-27T03:51:02.842Z,85.07
2023-03-27T03:52:03.454Z,85.11
2023-03-27T03:53:02.822Z,85.19
2023-03-27T03:54:02.795Z,85.24
2023-03-27T03:55:02.764Z,85.30
2023-03-27T03:56:02.790Z,85.40
2023-03-27T03:57:02.818Z,85.43
2023-03-27T03:58:02.732Z,85.51
2023-03-27T03:59:02.718Z,85.50
2023-03-27T04:00:02.719Z,85.57
2023-03-27T04:01:02.722Z,85.52
2023-03-27T04:02:02.778Z,85.53
2023-03-27T04:03:02.707Z,85.50
2023-03-27T04:04:02.651Z,85.53
2023-03-27T04:05:08.773Z,85.57
2023-03-27T04:06:02.650Z,85.52
2023-03-27T04:07:02.614Z,85.54
2023-03-27T04:08:02.663Z,85.58
2023-03-27T04:09:02.599Z,85.65
2023-03-27T04:10:02.582Z,85.76
2023-03-27T04:11:02.566Z,85.85
2023-03-27T04:12:02.549Z,85.95
2023-03-27T04:13:02.559Z,86.01
2023-03-27T04:14:02.535Z,86.07
2023-03-27T04:15:02.566Z,86.16
2023-03-27T04:16:02.544Z,86.22
2023-03-27T04:17:02.491Z,86.26
2023-03-27T04:18:02.542Z,86.29
2023-03-27T04:19:02.473Z,86.29
2023-03-27T04:20:02.486Z,86.34
2023-03-27T04:21:02.478Z,86.40
2023-03-27T04:22:02.432Z,86.46
2023-03-27T04:23:02.430Z,86.54
2023-03-27T04:24:02.810Z,86.57
2023-03-27T04:25:02.376Z,86.58
2023-03-27T04:26:02.405Z,86.64
2023-03-27T04:27:02.357Z,86.67
2023-03-27T04:28:02.387Z,86.73
2023-03-27T04:29:02.337Z,86.78
2023-03-27T04:30:02.421Z,86.82
2023-03-27T04:31:02.310Z,86.84
2023-03-27T04:32:02.323Z,86.91
2023-03-27T04:33:02.341Z,86.95
2023-03-27T04:34:02.278Z,86.98
2023-03-27T04:35:02.273Z,87.00
2023-03-27T04:36:06.894Z,86.99
2023-03-27T04:37:02.284Z,86.98
2023-03-27T04:38:02.217Z,87.01
2023-03-27T04:39:02.326Z,87.03
2023-03-27T04:40:02.195Z,87.06
2023-03-27T04:41:02.213Z,87.06
2023-03-27T04:42:02.171Z,87.09
2023-03-27T04:43:02.155Z,87.12
2023-03-27T04:44:02.162Z,87.16
2023-03-27T04:45:02.193Z,87.13
2023-03-27T04:46:02.116Z,87.12
2023-03-27T04:47:02.271Z,87.15
2023-03-27T04:48:02.136Z,87.19
2023-03-27T04:49:02.088Z,87.18
2023-03-27T04:50:02.066Z,87.18
2023-03-27T04:51:02.076Z,87.20
2023-03-27T04:52:02.075Z,87.18
2023-03-27T04:53:02.047Z,87.19
2023-03-27T04:54:02.025Z,87.15
2023-03-27T04:55:02.018Z,87.10
2023-03-27T04:56:01.980Z,87.04
2023-03-27T04:57:02.114Z,87.00
2023-03-27T04:58:01.969Z,86.94
2023-03-27T04:59:01.960Z,86.93
2023-03-27T05:00:01.962Z,86.92
2023-03-27T05:01:02.035Z,86.87
2023-03-27T05:02:01.988Z,86.86
2023-03-27T05:03:01.973Z,86.87
2023-03-27T05:04:01.919Z,86.87
2023-03-27T05:05:01.892Z,86.87
2023-03-27T05:06:01.863Z,86.84
2023-03-27T05:07:01.841Z,86.87
2023-03-27T05:08:01.839Z,86.84
2023-03-27T05:09:01.824Z,86.87
2023-03-27T05:10:01.830Z,86.86
2023-03-27T05:11:01.804Z,86.86
2023-03-27T05:12:01.795Z,86.91
2023-03-27T05:13:01.833Z,86.93
2023-03-27T05:14:01.794Z,86.88
2023-03-27T05:15:01.767Z,86.88
2023-03-27T05:16:01.769Z,86.87
2023-03-27T05:17:01.791Z,86.88
2023-03-27T05:18:01.775Z,86.89
2023-03-27T05:19:01.682Z,86.86
2023-03-27T05:20:01.674Z,86.86
2023-03-27T05:21:01.669Z,86.88
2023-03-27T05:22:01.650Z,86.85
2023-03-27T05:23:01.682Z,86.87
2023-03-27T05:24:01.634Z,86.92
2023-03-27T05:25:01.614Z,86.94
2023-03-27T05:26:01.600Z,86.94
2023-03-27T05:27:01.598Z,86.96
2023-03-27T05:28:01.609Z,86.99
2023-03-27T05:29:01.565Z,86.99
2023-03-27T05:30:01.600Z,87.00
2023-03-27T05:31:01.568Z,87.00
2023-03-27T05:32:01.673Z,86.98
2023-03-27T05:33:01.555Z,86.96
2023-03-27T05:34:01.559Z,86.94
2023-03-27T05:35:01.917Z,87.01
2023-03-27T05:36:01.569Z,86.98
2023-03-27T05:37:01.472Z,87.01
2023-03-27T05:38:01.465Z,87.01
2023-03-27T05:39:01.539Z,86.98
2023-03-27T05:40:01.420Z,87.01
2023-03-27T05:41:02.077Z,87.02
2023-03-27T05:42:01.417Z,86.97
2023-03-27T05:43:01.416Z,86.94
2023-03-27T05:44:01.392Z,86.93
2023-03-27T05:45:01.348Z,86.87
2023-03-27T05:46:01.386Z,86.88
2023-03-27T05:47:01.342Z,86.82
2023-03-27T05:48:01.345Z,86.81
2023-03-27T05:49:01.315Z,86.79
2023-03-27T05:50:01.285Z,86.79
2023-03-27T05:51:01.392Z,86.74
2023-03-27T05:53:20.286Z,86.62
2023-03-27T05:54:21.251Z,86.70
2023-03-27T05:55:21.272Z,86.69
2023-03-27T05:56:21.233Z,86.61
2023-03-27T05:57:21.350Z,86.54
2023-03-27T05:58:21.281Z,86.55
2023-03-27T05:59:21.156Z,86.58
2023-03-27T06:00:21.152Z,86.60
2023-03-27T06:01:21.112Z,86.60
2023-03-27T06:02:21.695Z,86.59
2023-03-27T06:03:21.193Z,86.60
2023-03-27T06:04:21.118Z,86.55
2023-03-27T06:05:21.060Z,86.46
2023-03-27T06:06:21.067Z,86.44
2023-03-27T06:07:21.034Z,86.41
2023-03-27T06:08:21.029Z,86.38
2023-03-27T06:09:21.049Z,86.34
2023-03-27T06:10:21.001Z,86.34
2023-03-27T06:11:21.002Z,86.31
2023-03-27T06:12:20.967Z,86.33
2023-03-27T06:13:20.969Z,86.32
2023-03-27T06:14:20.963Z,86.34
2023-03-27T06:15:20.978Z,86.28
2023-03-27T06:16:21.043Z,86.30
2023-03-27T06:17:20.937Z,86.25
2023-03-27T06:18:20.902Z,86.26
2023-03-27T06:19:20.894Z,86.30
2023-03-27T06:20:20.879Z,86.25
2023-03-27T06:21:20.922Z,86.25
2023-03-27T06:22:20.841Z,86.21
2023-03-27T06:23:20.835Z,86.18
2023-03-27T06:24:20.828Z,86.15
2023-03-27T06:25:20.846Z,86.16
2023-03-27T06:26:20.808Z,86.18
2023-03-27T06:27:20.789Z,86.21
2023-03-27T06:28:20.783Z,86.22
2023-03-27T06:29:20.771Z,86.20
2023-03-27T06:30:20.757Z,86.14
2023-03-27T06:31:20.744Z,86.13
2023-03-27T06:32:20.861Z,86.06
2023-03-27T06:33:20.705Z,85.99
2023-03-27T06:34:20.731Z,86.02
2023-03-27T06:35:20.731Z,85.91
2023-03-27T06:36:20.718Z,85.97
2023-03-27T06:37:20.667Z,85.96
2023-03-27T06:38:20.805Z,85.90
2023-03-27T06:39:20.676Z,85.95
2023-03-27T06:40:20.648Z,85.89
2023-03-27T06:41:20.646Z,85.92
2023-03-27T06:42:20.603Z,85.90
2023-03-27T06:43:20.596Z,85.98
2023-03-27T06:44:27.158Z,86.03
2023-03-27T06:45:20.582Z,86.04
2023-03-27T06:46:20.591Z,86.06
2023-03-27T06:47:20.598Z,86.01
2023-03-27T06:48:22.408Z,86.00
2023-03-27T06:49:20.509Z,86.00
2023-03-27T06:50:20.527Z,85.99
2023-03-27T06:51:20.485Z,86.03
2023-03-27T06:52:20.467Z,86.01
2023-03-27T06:54:20.455Z,85.99
2023-03-27T06:55:20.458Z,85.92
2023-03-27T06:56:20.408Z,85.92
2023-03-27T06:57:20.472Z,86.00
2023-03-27T06:58:20.741Z,86.05
2023-03-27T06:59:20.384Z,86.06
2023-03-27T07:00:20.384Z,86.08
2023-03-27T07:01:20.466Z,86.20
2023-03-27T07:02:20.335Z,86.14
2023-03-27T07:03:20.353Z,86.04
2023-03-27T07:04:20.336Z,86.05
2023-03-27T07:05:20.363Z,85.97
2023-03-27T07:06:20.289Z,85.98
2023-03-27T07:07:20.303Z,85.98
2023-03-27T07:08:24.735Z,85.96
2023-03-27T07:09:20.274Z,86.02
2023-03-27T07:10:20.282Z,86.07
2023-03-27T07:11:20.260Z,85.98
2023-03-27T07:12:20.215Z,86.00
2023-03-27T07:13:20.319Z,85.97
2023-03-27T07:14:20.194Z,85.96
2023-03-27T07:15:20.272Z,85.89
2023-03-27T07:16:20.249Z,85.88
2023-03-27T07:17:20.161Z,85.97
2023-03-27T07:18:20.200Z,85.96
2023-03-27T07:19:20.116Z,85.86
2023-03-27T07:20:20.143Z,85.77
2023-03-27T07:21:23.001Z,85.73
2023-03-27T07:22:20.116Z,85.74
2023-03-27T07:23:20.087Z,85.72
2023-03-27T07:24:20.057Z,85.78
2023-03-27T07:25:20.050Z,85.80
2023-03-27T07:26:20.088Z,85.75
2023-03-27T07:27:20.036Z,85.70
2023-03-27T07:28:20.016Z,85.61
2023-03-27T07:29:20.075Z,85.55
2023-03-27T07:30:19.999Z,85.52
2023-03-27T07:31:35.182Z,85.55
2023-03-27T07:32:34.108Z,85.67
2023-03-27T07:33:20.100Z,85.69
2023-03-27T07:34:19.961Z,85.68
2023-03-27T07:35:19.996Z,85.65
2023-03-27T07:36:19.932Z,85.58
2023-03-27T07:37:19.911Z,85.66
2023-03-27T07:38:19.928Z,85.68
2023-03-27T07:39:19.902Z,85.59
2023-03-27T07:40:23.806Z,85.60
2023-03-27T07:41:19.872Z,85.60
2023-03-27T07:42:19.846Z,85.65
2023-03-27T07:43:19.882Z,85.68
2023-03-27T07:44:19.809Z,85.75
2023-03-27T07:45:19.813Z,85.75
2023-03-27T07:46:19.844Z,85.80
2023-03-27T07:47:19.794Z,85.79
2023-03-27T07:48:19.768Z,85.71
2023-03-27T07:49:19.751Z,85.65
2023-03-27T07:50:19.745Z,85.58
2023-03-27T07:51:19.745Z,85.60
2023-03-27T07:52:19.737Z,85.58
2023-03-27T07:53:34.411Z,85.68
2023-03-27T07:54:19.683Z,85.75
2023-03-27T07:55:20.417Z,85.75
2023-03-27T07:56:19.673Z,85.80
2023-03-27T07:57:19.757Z,85.76
2023-03-27T07:58:19.824Z,85.70
2023-03-27T07:59:19.614Z,85.69
2023-03-27T08:00:19.690Z,85.70
2023-03-27T08:01:19.660Z,85.62
2023-03-27T08:02:19.607Z,85.58
2023-03-27T08:03:19.682Z,85.56
2023-03-27T08:04:19.700Z,85.53
2023-03-27T08:05:19.607Z,85.59
2023-03-27T08:06:19.535Z,85.58
2023-03-27T08:07:19.551Z,85.59
2023-03-27T08:08:19.505Z,85.60
2023-03-27T08:09:19.507Z,85.62
2023-03-27T08:10:19.470Z,85.61
2023-03-27T08:11:27.807Z,85.66
2023-03-27T08:12:19.464Z,85.59
2023-03-27T08:13:19.442Z,85.67
2023-03-27T08:14:19.465Z,85.69
2023-03-27T08:15:19.426Z,85.72
2023-03-27T08:16:19.437Z,85.70
2023-03-27T08:17:21.892Z,85.61
2023-03-27T08:18:19.474Z,85.69
2023-03-27T08:19:19.375Z,85.62
2023-03-27T08:20:19.365Z,85.63
2023-03-27T08:21:19.360Z,85.67
2023-03-27T08:22:19.340Z,85.72
2023-03-27T08:23:19.338Z,85.81
2023-03-27T08:24:19.373Z,85.82
2023-03-27T08:25:19.294Z,85.80
2023-03-27T08:26:19.281Z,85.82
2023-03-27T08:27:19.295Z,85.74
2023-03-27T08:28:19.247Z,85.83
2023-03-27T08:29:19.257Z,85.72
2023-03-27T08:30:19.239Z,85.73
2023-03-27T08:31:19.228Z,85.70
2023-03-27T08:32:19.207Z,85.69
2023-03-27T08:33:19.191Z,85.79
2023-03-27T08:34:19.210Z,85.74
2023-03-27T08:35:19.233Z,85.85
2023-03-27T08:36:19.154Z,85.82
2023-03-27T08:37:19.140Z,85.84
2023-03-27T08:38:26.063Z,85.85
2023-03-27T08:39:19.121Z,85.79
2023-03-27T08:40:19.438Z,85.80
2023-03-27T08:41:19.092Z,85.76
2023-03-27T08:42:19.487Z,85.77
2023-03-27T08:43:19.097Z,85.80
2023-03-27T08:44:19.039Z,85.70
2023-03-27T08:45:19.063Z,85.74
2023-03-27T08:46:19.062Z,85.74
2023-03-27T08:47:19.026Z,85.74
2023-03-27T08:48:21.208Z,85.75
2023-03-27T08:49:19.005Z,85.51
2023-03-27T08:50:18.986Z,85.38
2023-03-27T08:51:18.962Z,85.34
2023-03-27T08:52:18.966Z,85.20
2023-03-27T08:53:18.979Z,85.09
2023-03-27T08:54:18.928Z,85.20
2023-03-27T08:55:18.989Z,85.25
2023-03-27T08:56:18.906Z,85.11
2023-03-27T08:57:18.942Z,85.06
2023-03-27T08:58:18.892Z,85.03
2023-03-27T08:59:18.873Z,85.06
2023-03-27T09:00:18.881Z,84.98
2023-03-27T09:01:18.878Z,85.00
2023-03-27T09:02:18.908Z,84.94
2023-03-27T09:03:18.956Z,84.94
2023-03-27T09:04:18.858Z,84.75
2023-03-27T09:05:18.815Z,84.76
2023-03-27T09:06:19.061Z,84.71
2023-03-27T09:07:19.142Z,84.75
2023-03-27T09:08:19.902Z,84.65
2023-03-27T09:09:23.679Z,84.62
2023-03-27T09:10:20.607Z,84.55
2023-03-27T09:11:23.680Z,84.61
2023-03-27T09:12:19.060Z,84.52
2023-03-27T09:13:18.907Z,84.50
2023-03-27T09:14:19.092Z,84.48
2023-03-27T09:15:18.731Z,84.63
2023-03-27T09:16:18.930Z,84.67
2023-03-27T09:17:18.752Z,84.58
2023-03-27T09:18:20.488Z,84.53
2023-03-27T09:19:20.540Z,84.44
2023-03-27T09:20:21.413Z,84.41
2023-03-27T09:21:19.172Z,84.23
2023-03-27T09:22:20.228Z,84.29
2023-03-27T09:23:21.289Z,84.14
2023-03-27T09:24:22.125Z,84.28
2023-03-27T09:25:21.333Z,84.13
2023-03-27T09:26:19.098Z,84.12
2023-03-27T09:27:34.594Z,84.03
2023-03-27T09:28:26.455Z,83.92
2023-03-27T09:29:20.595Z,83.96
2023-03-27T09:30:18.756Z,83.83
2023-03-27T09:31:20.888Z,83.71
2023-03-27T09:32:19.811Z,83.67
2023-03-27T09:33:19.025Z,83.95
2023-03-27T09:34:19.313Z,83.89
2023-03-27T09:35:18.619Z,83.76
2023-03-27T09:36:18.471Z,83.64
2023-03-27T09:37:18.470Z,83.57
2023-03-27T09:38:24.295Z,83.71
2023-03-27T09:39:18.492Z,83.66
2023-03-27T09:40:18.364Z,83.50
2023-03-27T09:41:18.425Z,83.47
2023-03-27T09:42:19.141Z,83.34
2023-03-27T09:43:18.378Z,83.49
2023-03-27T09:44:18.423Z,83.35
2023-03-27T09:45:18.297Z,83.16
2023-03-27T09:46:18.592Z,83.31
2023-03-27T09:47:18.262Z,83.14
2023-03-27T09:48:18.314Z,82.92
2023-03-27T09:49:18.314Z,82.93
2023-03-27T09:50:18.238Z,82.85
2023-03-27T09:51:18.225Z,82.81
2023-03-27T09:52:18.416Z,82.78
2023-03-27T09:53:18.251Z,82.45
2023-03-27T09:54:19.524Z,82.46
2023-03-27T09:55:18.186Z,82.55
2023-03-27T09:56:21.131Z,82.46
2023-03-27T09:57:22.095Z,82.29
2023-03-27T09:58:21.181Z,81.92
2023-03-27T09:59:35.351Z,81.86
2023-03-27T10:00:18.259Z,81.51
2023-03-27T10:01:21.163Z,81.28
2023-03-27T10:02:18.269Z,81.21
2023-03-27T10:03:21.391Z,81.12
2023-03-27T10:04:18.887Z,80.78
2023-03-27T10:05:18.718Z,80.62
2023-03-27T10:06:18.312Z,80.62
2023-03-27T10:07:19.075Z,80.83
2023-03-27T10:08:19.809Z,81.02
2023-03-27T10:09:19.139Z,81.20
2023-03-27T10:10:19.291Z,81.07
2023-03-27T10:11:18.694Z,81.29
2023-03-27T10:12:19.331Z,81.11
2023-03-27T10:13:18.665Z,80.83
2023-03-27T10:14:18.373Z,80.66
2023-03-27T10:15:18.408Z,80.43
2023-03-27T10:16:23.405Z,80.24
2023-03-27T10:17:20.477Z,80.27
2023-03-27T10:18:17.894Z,80.47
2023-03-27T10:19:17.873Z,80.47
2023-03-27T10:20:21.042Z,80.24
2023-03-27T10:21:20.428Z,80.10
2023-03-27T10:22:21.769Z,79.87
2023-03-27T10:23:47.131Z,79.85
2023-03-27T10:24:18.036Z,79.34
2023-03-27T10:25:17.903Z,79.33
2023-03-27T10:26:17.806Z,79.32
2023-03-27T10:27:17.820Z,79.29
2023-03-27T10:28:17.875Z,78.98
2023-03-27T10:29:17.867Z,78.78
2023-03-27T10:30:17.733Z,78.49
2023-03-27T10:31:17.857Z,78.05
2023-03-27T10:32:17.836Z,77.56
2023-03-27T10:33:17.791Z,77.78
2023-03-27T10:34:17.882Z,77.59
2023-03-27T10:35:17.712Z,77.55
2023-03-27T10:36:17.710Z,77.56
2023-03-27T10:37:18.583Z,78.05
2023-03-27T10:38:18.551Z,77.87
2023-03-27T10:39:19.317Z,77.88
2023-03-27T10:40:17.670Z,77.98
2023-03-27T10:41:28.679Z,77.46
2023-03-27T10:42:17.641Z,77.56
2023-03-27T10:43:17.576Z,77.46
2023-03-27T10:44:18.264Z,77.03
2023-03-27T10:45:17.563Z,77.53
2023-03-27T10:46:17.611Z,77.37
2023-03-27T10:47:17.523Z,77.22
2023-03-27T10:48:17.484Z,77.32
2023-03-27T10:49:17.609Z,77.33
2023-03-27T10:50:17.477Z,77.18
2023-03-27T10:51:17.463Z,77.00
2023-03-27T10:52:17.447Z,76.91
2023-03-27T10:53:17.551Z,76.96
2023-03-27T10:54:17.437Z,77.20
2023-03-27T10:55:17.421Z,77.03
2023-03-27T10:56:17.424Z,77.07
2023-03-27T10:57:17.451Z,76.66
2023-03-27T10:58:17.387Z,76.47
2023-03-27T10:59:17.488Z,76.34
2023-03-27T11:02:28.671Z,75.51
2023-03-27T11:53:29.160Z,72.03
2023-03-27T12:06:13.353Z,68.86
2023-03-27T12:08:40.128Z,68.34
2023-03-27T12:09:41.042Z,68.47
2023-03-27T12:10:41.018Z,69.35
2023-03-27T12:11:41.721Z,69.75
2023-03-27T12:12:41.027Z,70.31
2023-03-27T12:13:42.662Z,70.19
2023-03-27T12:14:41.416Z,70.22
2023-03-27T12:15:40.965Z,70.24
2023-03-27T12:16:41.013Z,70.44
2023-03-27T12:17:40.968Z,70.37
2023-03-27T12:18:45.267Z,70.42
2023-03-27T12:19:41.120Z,70.43
2023-03-27T12:20:52.000Z,70.60
2023-03-27T12:21:40.926Z,69.40
2023-03-27T12:22:40.878Z,69.01
2023-03-27T12:23:40.863Z,69.11
2023-03-27T12:24:53.441Z,68.68
2023-03-27T12:25:40.826Z,69.05
2023-03-27T12:26:40.816Z,69.01
2023-03-27T12:27:40.811Z,69.26
2023-03-27T12:28:41.271Z,69.10
2023-03-27T12:29:40.788Z,68.43
2023-03-27T12:30:40.772Z,68.40
2023-03-27T12:31:40.770Z,68.38
2023-03-27T12:32:40.790Z,68.42
2023-03-27T12:33:40.740Z,68.69
2023-03-27T12:34:40.722Z,68.51
2023-03-27T12:35:40.784Z,68.61
2023-03-27T12:36:40.682Z,67.51
2023-03-27T12:37:40.673Z,67.12
2023-03-27T12:38:40.689Z,66.19
2023-03-27T12:39:40.670Z,66.15
2023-03-27T12:40:40.673Z,65.74
2023-03-27T12:41:40.651Z,65.44
2023-03-27T12:42:43.853Z,65.65
2023-03-27T12:43:40.619Z,65.23
2023-03-27T12:44:40.598Z,64.51
2023-03-27T12:45:51.105Z,64.49
2023-03-27T12:46:40.704Z,64.34
2023-03-27T12:47:40.601Z,64.08
2023-03-27T12:48:40.560Z,64.34
2023-03-27T12:49:47.009Z,64.56
2023-03-27T12:50:40.504Z,64.30
2023-03-27T12:51:40.528Z,63.89
2023-03-27T12:52:40.499Z,64.00
2023-03-27T12:53:40.554Z,64.11
2023-03-27T12:54:40.485Z,63.63
2023-03-27T12:55:40.480Z,63.33
2023-03-27T12:56:40.489Z,63.16
2023-03-27T12:57:40.629Z,63.26
2023-03-27T12:58:40.450Z,63.43
2023-03-27T12:59:40.417Z,63.42
2023-03-27T13:00:40.439Z,63.59
2023-03-27T13:01:51.158Z,63.51
2023-03-27T13:02:40.425Z,63.94
2023-03-27T13:03:40.506Z,64.49
2023-03-27T13:04:40.354Z,65.10
2023-03-27T13:05:40.396Z,65.62
2023-03-27T13:06:40.326Z,66.40
2023-03-27T13:07:40.333Z,66.60
2023-03-27T13:08:40.288Z,66.02
2023-03-27T13:09:47.330Z,66.25
2023-03-27T13:10:46.807Z,65.85
2023-03-27T13:11:40.247Z,66.13
2023-03-27T13:12:40.258Z,66.08
2023-03-27T13:13:40.229Z,65.92
2023-03-27T13:14:40.296Z,65.81
2023-03-27T13:15:40.282Z,66.01
2023-03-27T13:16:40.195Z,66.30
2023-03-27T13:17:40.236Z,66.52
2023-03-27T13:18:40.252Z,66.43
2023-03-27T13:19:40.281Z,66.51
2023-03-27T13:20:40.209Z,66.29
2023-03-27T13:21:40.129Z,65.84
2023-03-27T13:22:40.122Z,65.76
2023-03-27T13:23:40.110Z,65.26
2023-03-27T13:24:40.090Z,65.24
2023-03-27T13:25:40.149Z,64.87
2023-03-27T13:26:40.730Z,64.95
2023-03-27T13:27:40.165Z,65.01
2023-03-27T13:28:40.571Z,65.03
2023-03-27T13:29:41.003Z,65.10
2023-03-27T13:30:40.036Z,65.00
2023-03-27T13:31:40.119Z,64.91
2023-03-27T13:32:40.283Z,64.81
2023-03-27T13:33:40.509Z,64.25
2023-03-27T13:34:40.802Z,64.22
2023-03-27T13:35:40.269Z,63.83
2023-03-27T13:36:39.970Z,63.54
2023-03-27T13:37:39.952Z,63.39
2023-03-27T13:38:39.908Z,63.22
2023-03-27T13:39:39.917Z,63.32
2023-03-27T13:40:39.916Z,63.15
2023-03-27T13:41:39.960Z,62.41
2023-03-27T13:42:41.432Z,61.58
2023-03-27T13:43:39.870Z,61.25
2023-03-27T13:44:40.171Z,60.73
2023-03-27T13:45:39.893Z,60.36
2023-03-27T13:46:40.104Z,59.91
2023-03-27T13:47:39.829Z,60.02
2023-03-27T13:48:39.832Z,59.98
2023-03-27T13:49:39.827Z,60.10
2023-03-27T13:50:39.773Z,59.77
2023-03-27T13:51:39.760Z,59.15
2023-03-27T13:52:39.728Z,58.90
2023-03-27T13:53:39.728Z,58.68
2023-03-27T13:54:39.697Z,57.61
2023-03-27T13:55:39.693Z,56.81
2023-03-27T13:56:39.749Z,55.51
2023-03-27T13:57:39.777Z,54.30
2023-03-27T13:58:39.650Z,53.55
2023-03-27T13:59:39.670Z,53.18